Time;durP1;ratioP1;P1;durP2;ratioP2;P2;SDS_P1;SDS_P2;PMS_P1;PMS_P2;Temp;Humidity;BMP_temperature;BMP_pressure;BME280_temperature;BME280_humidity;BME280_pressure;Samples;Min_cycle;Max_cycle;Signal;HPM_P1;HPM_P2
2021/12/20 00:00:21;;;;;;;2.17;1.50;;;;;;;14.70;45.72;100392.00;4932047;29;20571;-68
2021/12/20 00:02:53;;;;;;;6.50;2.88;;;;;;;14.71;45.61;100376.78;4934187;29;20079;-68
2021/12/20 00:05:21;;;;;;;3.37;0.87;;;;;;;14.69;45.98;100390.31;4928681;29;20047;-68
2021/12/20 00:07:48;;;;;;;3.53;1.80;;;;;;;14.75;45.81;100397.50;4926875;29;20489;-66
2021/12/20 00:10:16;;;;;;;1.97;1.67;;;;;;;14.80;45.81;100388.97;4930028;29;20123;-66
2021/12/20 00:12:43;;;;;;;3.33;2.10;;;;;;;14.80;45.93;100374.94;4929786;29;20098;-66
2021/12/20 00:15:10;;;;;;;3.30;1.83;;;;;;;14.75;46.04;100388.25;4928386;29;20127;-62
2021/12/20 00:17:37;;;;;;;2.40;1.60;;;;;;;14.80;45.82;100379.69;4932259;29;20444;-62
2021/12/20 00:20:05;;;;;;;3.70;1.60;;;;;;;14.80;45.83;100380.56;4928442;29;20051;-62
2021/12/20 00:22:32;;;;;;;4.03;1.30;;;;;;;14.81;45.98;100375.75;4927605;29;20460;-60
2021/12/20 00:25:01;;;;;;;4.80;2.00;;;;;;;14.84;45.80;100387.22;4928375;29;20050;-61
2021/12/20 00:27:28;;;;;;;8.90;2.30;;;;;;;14.76;45.92;100371.06;4924205;29;20393;-62
2021/12/20 00:29:54;;;;;;;1.80;1.07;;;;;;;14.70;46.13;100352.66;4936624;29;20047;-59
2021/12/20 00:32:21;;;;;;;2.03;1.37;;;;;;;14.60;46.39;100370.56;4934909;29;20506;-59
2021/12/20 00:34:48;;;;;;;2.30;1.40;;;;;;;14.69;46.16;100368.66;4935938;29;20122;-64
2021/12/20 00:40:21;;;;;;;3.13;1.70;;;;;;;14.66;46.38;100351.59;4927593;29;20155;-59
2021/12/20 00:42:50;;;;;;;2.10;1.40;;;;;;;14.69;46.55;100350.97;4930787;29;20173;-62
2021/12/20 00:45:19;;;;;;;1.30;0.88;;;;;;;14.64;46.53;100362.34;4930574;29;20480;-67
2021/12/20 00:47:46;;;;;;;2.53;1.30;;;;;;;14.78;46.25;100334.22;4932903;29;20138;-57
2021/12/20 00:50:15;;;;;;;5.07;2.63;;;;;;;14.78;46.31;100348.28;4934808;29;20131;-59
2021/12/20 00:52:43;;;;;;;3.53;1.23;;;;;;;14.65;46.57;100339.53;4935045;29;20047;-64
2021/12/20 00:55:12;;;;;;;6.03;1.53;;;;;;;14.67;46.72;100327.97;4934649;29;20389;-64
2021/12/20 00:57:39;;;;;;;3.50;1.80;;;;;;;14.67;46.72;100340.06;4932859;29;20496;-62
2021/12/20 01:00:08;;;;;;;3.73;1.90;;;;;;;14.74;46.66;100336.81;4935630;29;20086;-61
2021/12/20 01:02:35;;;;;;;2.80;1.67;;;;;;;14.64;46.62;100351.09;4947995;28;20086;-61
2021/12/20 01:05:03;;;;;;;1.63;1.37;;;;;;;14.65;46.71;100335.88;4932608;29;20050;-60
2021/12/20 01:07:33;;;;;;;2.20;1.53;;;;;;;14.69;46.76;100331.28;4928189;29;20570;-60
2021/12/20 01:10:04;;;;;;;2.33;1.43;;;;;;;14.67;46.79;100342.03;4934719;29;20048;-60
2021/12/20 01:12:41;;;;;;;4.90;1.33;;;;;;;14.62;46.98;100357.00;4933428;29;20054;-61
2021/12/20 01:15:16;;;;;;;0.60;0.60;;;;;;;14.60;47.08;100341.63;4933659;29;20130;-61
2021/12/20 01:17:43;;;;;;;1.20;0.80;;;;;;;14.58;47.13;100332.66;4935862;29;20095;-61
2021/12/20 01:20:11;;;;;;;3.20;1.90;;;;;;;14.46;47.19;100319.94;4931038;29;20098;-61
2021/12/20 01:22:44;;;;;;;1.37;1.27;;;;;;;14.53;47.22;100327.13;4931236;29;20515;-62
2021/12/20 01:25:12;;;;;;;2.80;1.53;;;;;;;14.44;47.44;100319.41;4922165;29;20058;-61
2021/12/20 01:27:38;;;;;;;2.13;1.37;;;;;;;14.38;47.48;100329.06;4934474;29;20464;-61
2021/12/20 01:30:08;;;;;;;3.17;1.27;;;;;;;14.44;47.46;100332.63;4934568;29;20515;-61
2021/12/20 01:32:35;;;;;;;2.20;0.85;;;;;;;14.43;47.49;100325.34;4935439;29;20044;-61
2021/12/20 01:35:03;;;;;;;5.23;1.97;;;;;;;14.45;47.31;100326.69;4932212;29;20051;-61
2021/12/20 01:37:30;;;;;;;5.07;1.57;;;;;;;14.50;47.27;100337.03;4931507;29;20051;-62
2021/12/20 01:39:59;;;;;;;2.30;1.37;;;;;;;14.48;47.47;100338.47;4928732;29;20095;-63
2021/12/20 01:42:32;;;;;;;3.00;1.30;;;;;;;14.54;47.31;100331.63;4934097;29;20493;-63
2021/12/20 01:44:59;;;;;;;2.37;1.43;;;;;;;14.59;47.14;100352.00;4933889;29;20135;-66
2021/12/20 01:47:30;;;;;;;1.30;1.00;;;;;;;14.54;47.45;100328.81;4934713;29;20149;-66
2021/12/20 01:50:14;;;;;;;1.53;1.33;;;;;;;14.59;47.27;100323.91;4935965;29;20052;-61
2021/12/20 01:52:43;;;;;;;3.03;1.67;;;;;;;14.54;47.31;100297.91;4929229;29;20075;-61
2021/12/20 01:55:19;;;;;;;3.40;1.80;;;;;;;14.56;47.36;100313.28;4929303;29;20462;-61
2021/12/20 01:57:47;;;;;;;0.70;0.70;;;;;;;14.64;47.51;100332.25;4933210;29;20048;-63
2021/12/20 02:00:18;;;;;;;3.80;1.23;;;;;;;14.64;47.29;100308.94;4934220;29;20075;-63
2021/12/20 02:02:45;;;;;;;1.83;0.90;;;;;;;14.74;47.17;100319.97;4931642;29;20135;-63
2021/12/20 02:05:21;;;;;;;2.43;1.40;;;;;;;14.71;47.26;100320.59;4934673;29;20130;-63
2021/12/20 02:07:58;;;;;;;1.30;1.17;;;;;;;14.73;47.21;100318.28;4934912;29;20043;-62
2021/12/20 02:10:25;;;;;;;2.50;1.37;;;;;;;14.75;47.13;100320.78;4930354;29;20130;-62
2021/12/20 02:12:52;;;;;;;4.10;2.40;;;;;;;14.87;46.73;100307.84;4928902;29;20044;-63
2021/12/20 02:15:19;;;;;;;5.67;2.17;;;;;;;14.74;47.02;100317.16;4930242;29;20043;-60
2021/12/20 02:17:46;;;;;;;1.70;1.33;;;;;;;14.87;46.92;100329.50;4935008;29;20093;-60
2021/12/20 02:20:28;;;;;;;1.30;0.83;;;;;;;14.85;46.92;100315.75;4934945;29;20055;-60
2021/12/20 02:22:58;;;;;;;5.43;2.77;;;;;;;14.88;46.72;100315.13;4927850;29;20461;-61
2021/12/20 02:25:28;;;;;;;3.10;1.40;;;;;;;14.89;46.59;100293.47;4932467;29;20130;-61
2021/12/20 02:27:55;;;;;;;2.00;1.52;;;;;;;14.95;46.85;100302.63;4932767;29;20127;-64
2021/12/20 02:38:31;;;;;;;2.70;1.70;;;;;;;14.83;47.21;100284.31;4930975;29;20134;-61
2021/12/20 02:41:07;;;;;;;5.20;1.30;;;;;;;14.79;47.51;100268.41;4932099;29;20116;-64
2021/12/20 02:43:39;;;;;;;1.17;0.93;;;;;;;14.81;47.28;100266.94;4930932;29;20484;-64
2021/12/20 02:46:33;;;;;;;16.20;2.17;;;;;;;14.85;47.43;100275.56;4929984;29;20146;-63
2021/12/20 02:49:00;;;;;;;1.73;1.03;;;;;;;14.67;47.47;100264.16;4930089;29;20132;-61
2021/12/20 02:51:28;;;;;;;2.00;0.83;;;;;;;14.82;47.37;100293.06;4927580;29;20051;-62
2021/12/20 02:53:57;;;;;;;3.87;1.30;;;;;;;14.85;47.26;100276.41;4933051;29;20122;-62
2021/12/20 02:56:24;;;;;;;5.28;1.48;;;;;;;14.90;47.30;100290.34;4931549;29;22352;-60
2021/12/20 02:58:53;;;;;;;5.73;1.77;;;;;;;14.90;47.03;100272.63;4930287;29;20580;-60
2021/12/20 03:01:21;;;;;;;4.83;1.83;;;;;;;14.99;46.93;100267.09;4934658;28;20047;-61
2021/12/20 03:03:50;;;;;;;0.80;0.40;;;;;;;15.00;46.93;100265.94;4930189;29;21000;-61
2021/12/20 03:06:25;;;;;;;2.15;1.33;;;;;;;15.02;46.97;100272.09;4931536;29;20155;-61
2021/12/20 03:08:55;;;;;;;3.77;1.20;;;;;;;14.98;47.03;100271.91;4929259;29;20055;-62
2021/12/20 03:11:25;;;;;;;8.57;1.73;;;;;;;15.00;47.12;100280.00;4933011;29;20052;-62
2021/12/20 03:13:57;;;;;;;2.70;1.43;;;;;;;14.91;47.38;100263.91;4930634;29;20130;-65
2021/12/20 03:16:25;;;;;;;3.47;2.07;;;;;;;15.02;47.11;100275.75;4932036;29;20054;-66
2021/12/20 03:18:52;;;;;;;3.90;2.03;;;;;;;15.03;47.13;100265.31;4948069;29;20083;-66
2021/12/20 03:21:19;;;;;;;5.80;1.80;;;;;;;14.98;47.35;100268.25;4933518;29;20139;-66
2021/12/20 03:23:45;;;;;;;2.60;1.43;;;;;;;15.05;47.21;100260.22;4930378;29;20052;-66
2021/12/20 03:26:12;;;;;;;4.13;1.40;;;;;;;15.09;46.96;100270.50;4933337;29;20123;-66
2021/12/20 03:28:39;;;;;;;1.10;0.87;;;;;;;15.03;47.32;100277.38;4933223;29;20126;-65
2021/12/20 03:31:06;;;;;;;6.30;2.20;;;;;;;14.96;47.36;100260.13;4930135;29;20515;-69
2021/12/20 03:33:33;;;;;;;4.73;2.17;;;;;;;15.03;47.32;100265.31;4932033;29;20040;-68
2021/12/20 03:35:59;;;;;;;3.67;2.17;;;;;;;15.11;47.07;100264.53;4931390;29;20143;-63
2021/12/20 03:38:27;;;;;;;1.60;1.10;;;;;;;15.03;47.34;100265.31;4929092;29;20074;-66
2021/12/20 03:40:54;;;;;;;4.00;1.70;;;;;;;15.02;47.44;100267.31;4930863;29;20167;-64
2021/12/20 03:43:24;;;;;;;3.07;1.67;;;;;;;14.45;47.47;100171.34;4931772;29;20126;-64
2021/12/20 03:45:57;;;;;;;3.43;1.70;;;;;;;15.00;47.92;100268.75;4932741;29;20098;-64
2021/12/20 03:48:24;;;;;;;3.13;1.27;;;;;;;14.79;47.50;100229.03;4932700;29;20528;-64
2021/12/20 03:50:53;;;;;;;3.57;1.97;;;;;;;14.97;47.65;100267.41;4932307;29;20550;-65
2021/12/20 03:53:20;;;;;;;5.77;1.30;;;;;;;14.99;47.41;100269.91;4933243;29;20084;-65
2021/12/20 03:55:47;;;;;;;0.33;0.33;;;;;;;15.03;47.33;100285.00;4926915;29;20055;-60
2021/12/20 03:58:14;;;;;;;11.37;2.10;;;;;;;14.93;47.44;100261.59;4932788;29;20135;-61
2021/12/20 04:00:41;;;;;;;7.83;1.03;;;;;;;15.00;47.42;100280.84;4928570;29;20043;-61
2021/12/20 04:03:12;;;;;;;0.37;0.37;;;;;;;14.92;47.88;100275.97;4932866;29;20055;-61
2021/12/20 04:05:40;;;;;;;0.60;0.53;;;;;;;14.93;48.03;100278.44;4931639;29;20579;-59
2021/12/20 04:08:07;;;;;;;4.90;0.80;;;;;;;14.92;47.81;100271.19;4927741;29;20090;-65
2021/12/20 04:10:34;;;;;;;3.03;1.60;;;;;;;14.84;48.19;100269.13;4929838;29;20458;-62
2021/12/20 04:13:02;;;;;;;1.33;1.13;;;;;;;14.85;48.22;100259.53;4930472;29;20130;-66
2021/12/20 04:15:28;;;;;;;1.60;0.83;;;;;;;14.80;48.28;100272.88;4926682;29;20048;-65
2021/12/20 04:17:55;;;;;;;3.27;1.80;;;;;;;14.81;48.32;100263.31;4933490;29;20140;-65
2021/12/20 04:20:22;;;;;;;1.73;1.10;;;;;;;14.83;48.30;100264.63;4927915;29;20079;-67
2021/12/20 04:22:49;;;;;;;2.90;1.87;;;;;;;14.77;48.20;100237.81;4928026;29;20083;-69
2021/12/20 04:25:16;;;;;;;10.40;2.10;;;;;;;14.86;48.17;100249.94;4933188;29;20126;-58
2021/12/20 04:27:47;;;;;;;7.47;1.63;;;;;;;14.89;48.28;100232.44;4930106;29;20048;-59
2021/12/20 04:30:14;;;;;;;5.00;1.47;;;;;;;14.91;48.25;100247.03;4933820;29;20144;-65
2021/12/20 04:32:46;;;;;;;1.93;1.13;;;;;;;14.91;48.09;100241.41;4926196;29;20131;-62
2021/12/20 04:35:16;;;;;;;2.77;0.83;;;;;;;14.87;48.28;100256.41;4930354;29;20054;-60
2021/12/20 04:37:45;;;;;;;3.38;1.10;;;;;;;14.91;48.17;100240.59;4928661;29;20087;-60
2021/12/20 04:40:18;;;;;;;3.35;1.15;;;;;;;14.98;48.12;100237.34;4931038;29;20142;-61
2021/12/20 04:42:50;;;;;;;4.97;2.17;;;;;;;14.95;47.93;100224.72;4933790;29;20123;-61
2021/12/20 04:45:17;;;;;;;6.27;1.60;;;;;;;15.05;47.92;100235.72;4932317;29;20052;-64
2021/12/20 04:47:44;;;;;;;2.53;1.00;;;;;;;14.95;47.88;100229.53;4934290;29;20043;-61
2021/12/20 04:50:13;;;;;;;0.63;0.47;;;;;;;15.04;48.08;100230.41;4927952;29;20844;-62
2021/12/20 04:52:41;;;;;;;2.67;0.90;;;;;;;15.01;48.41;100245.97;4942923;29;20308;-67
2021/12/20 04:55:10;;;;;;;0.60;0.60;;;;;;;15.02;48.03;100238.34;4929438;29;20075;-64
2021/12/20 04:57:37;;;;;;;5.83;0.93;;;;;;;14.98;48.01;100229.72;4927747;29;20131;-63
2021/12/20 05:00:12;;;;;;;2.40;1.37;;;;;;;14.98;48.10;100228.91;4932702;29;20135;-63
2021/12/20 05:02:39;;;;;;;3.03;1.70;;;;;;;15.07;48.01;100238.22;4925425;29;20063;-63
2021/12/20 05:05:07;;;;;;;2.63;1.10;;;;;;;15.00;48.09;100230.22;4930136;29;20474;-60
2021/12/20 05:07:34;;;;;;;3.73;1.87;;;;;;;15.03;47.87;100235.22;4927726;29;20044;-60
2021/12/20 05:10:02;;;;;;;4.27;1.30;;;;;;;15.01;47.70;100225.41;4930371;29;20123;-61
2021/12/20 05:12:29;;;;;;;1.47;1.20;;;;;;;15.03;47.75;100225.94;4927236;29;20044;-61
2021/12/20 05:14:56;;;;;;;5.70;1.90;;;;;;;15.07;47.97;100235.41;4936353;29;20127;-61
2021/12/20 05:17:23;;;;;;;4.73;1.40;;;;;;;15.01;47.81;100225.41;4939277;28;20079;-61
2021/12/20 05:19:50;;;;;;;3.30;1.63;;;;;;;15.00;48.00;100230.22;4931599;29;20047;-62
2021/12/20 05:22:16;;;;;;;1.07;0.80;;;;;;;14.97;48.08;100224.41;4932350;29;20518;-63
2021/12/20 05:24:43;;;;;;;2.37;0.70;;;;;;;14.90;48.10;100227.66;4930936;29;20052;-63
2021/12/20 05:27:10;;;;;;;4.13;1.30;;;;;;;14.95;48.13;100223.91;4932072;29;20138;-63
2021/12/20 05:29:37;;;;;;;6.90;2.03;;;;;;;14.97;47.82;100216.78;4936882;29;20556;-63
2021/12/20 05:32:06;;;;;;;4.60;2.03;;;;;;;15.02;47.81;100219.50;4935470;29;20134;-62
2021/12/20 05:34:36;;;;;;;4.20;1.23;;;;;;;14.88;48.01;100199.88;4933248;29;20072;-61
2021/12/20 05:37:03;;;;;;;2.27;0.93;;;;;;;14.90;48.23;100222.03;4933104;29;20050;-60
2021/12/20 05:39:29;;;;;;;0.67;0.53;;;;;;;14.86;48.37;100212.56;4934737;29;20552;-61
2021/12/20 05:41:56;;;;;;;0.73;0.60;;;;;;;14.83;48.21;100204.78;4922861;29;20563;-65
2021/12/20 05:44:23;;;;;;;7.50;2.03;;;;;;;15.02;48.05;100222.31;4932065;29;20055;-62
2021/12/20 05:46:52;;;;;;;4.57;1.57;;;;;;;14.96;48.08;100209.50;4932968;29;20126;-62
2021/12/20 05:49:19;;;;;;;1.10;0.97;;;;;;;14.86;48.11;100204.13;4931834;29;20086;-64
2021/12/20 05:51:46;;;;;;;6.43;1.43;;;;;;;14.82;48.39;100212.38;4932812;29;20051;-64
2021/12/20 05:54:13;;;;;;;2.63;0.93;;;;;;;14.80;48.31;100203.44;4924859;29;20139;-64
2021/12/20 05:56:40;;;;;;;1.17;0.70;;;;;;;14.90;48.00;100208.78;4933466;29;20135;-64
2021/12/20 05:59:07;;;;;;;3.47;1.20;;;;;;;14.93;48.07;100219.41;4934296;29;20142;-62
2021/12/20 06:01:34;;;;;;;0.80;0.80;;;;;;;14.88;48.32;100233.59;4934417;29;20126;-66
2021/12/20 06:04:01;;;;;;;3.40;1.40;;;;;;;14.88;48.20;100233.59;4931838;29;20138;-63
2021/12/20 06:06:29;;;;;;;1.10;0.77;;;;;;;14.80;48.25;100242.81;4929510;29;20051;-63
2021/12/20 06:08:55;;;;;;;1.47;1.00;;;;;;;14.78;48.29;100242.28;4932626;29;20062;-65
2021/12/20 06:11:24;;;;;;;3.23;0.97;;;;;;;14.79;48.78;100248.72;4937465;29;20084;-64
2021/12/20 06:13:52;;;;;;;2.20;1.50;;;;;;;14.75;48.63;100242.91;4932248;28;20148;-59
2021/12/20 06:16:19;;;;;;;2.37;1.70;;;;;;;14.69;48.69;100245.00;4934604;29;20044;-60
2021/12/20 06:18:46;;;;;;;1.40;1.07;;;;;;;14.78;48.66;100242.28;4934412;29;20083;-61
2021/12/20 06:21:12;;;;;;;0.53;0.53;;;;;;;14.81;48.63;100246.44;4927100;29;20048;-62
2021/12/20 06:23:39;;;;;;;0.80;0.57;;;;;;;14.80;48.34;100251.25;4932224;29;20053;-63
2021/12/20 06:26:06;;;;;;;3.80;1.43;;;;;;;14.76;48.58;100250.19;4932457;29;20066;-59
2021/12/20 06:28:33;;;;;;;3.00;1.40;;;;;;;14.73;48.82;100253.63;4928243;29;23001;-60
2021/12/20 06:31:00;;;;;;;1.37;0.80;;;;;;;14.74;48.67;100252.50;4931909;29;20130;-61
2021/12/20 06:33:27;;;;;;;2.57;1.23;;;;;;;14.71;48.71;100244.69;4934907;29;20075;-59
2021/12/20 06:35:54;;;;;;;4.80;0.90;;;;;;;14.73;48.86;100256.44;4920564;29;20059;-60
2021/12/20 06:38:22;;;;;;;5.30;1.57;;;;;;;14.69;48.69;100241.34;4921166;29;20464;-61
2021/12/20 06:40:51;;;;;;;2.37;1.07;;;;;;;14.79;48.68;100238.31;4934593;29;20071;-66
2021/12/20 06:43:19;;;;;;;4.63;1.03;;;;;;;14.80;48.60;100262.47;4928769;29;20083;-68
2021/12/20 06:45:47;;;;;;;7.25;2.40;;;;;;;14.67;48.76;100252.09;4929245;29;20055;-60
2021/12/20 06:48:14;;;;;;;1.37;0.80;;;;;;;14.75;48.81;100258.94;4929637;29;20138;-58
2021/12/20 06:50:41;;;;;;;0.77;0.63;;;;;;;14.76;48.83;100258.63;4928084;29;20054;-61
2021/12/20 06:53:08;;;;;;;1.83;1.03;;;;;;;14.73;48.77;100264.88;4924363;29;20060;-61
2021/12/20 06:55:36;;;;;;;3.30;1.47;;;;;;;14.70;48.86;100262.72;4926890;29;20147;-63
2021/12/20 06:58:04;;;;;;;3.83;1.47;;;;;;;14.61;48.92;100244.91;4925252;29;20048;-67
2021/12/20 07:00:31;;;;;;;1.43;1.13;;;;;;;14.66;48.96;100256.84;4923119;29;20061;-59
2021/12/20 07:02:58;;;;;;;7.03;1.83;;;;;;;14.69;48.91;100266.66;4929565;29;20051;-60
2021/12/20 07:05:25;;;;;;;2.20;1.93;;;;;;;14.68;48.89;100263.00;4921114;29;20095;-63
2021/12/20 07:07:52;;;;;;;5.77;1.57;;;;;;;14.69;48.88;100263.84;4932614;29;20723;-68
2021/12/20 07:10:19;;;;;;;2.33;1.57;;;;;;;14.62;48.95;100267.06;4924807;29;20044;-60
2021/12/20 07:12:46;;;;;;;7.43;1.83;;;;;;;14.65;49.13;100263.63;4927472;29;20104;-60
2021/12/20 07:15:15;;;;;;;8.17;1.87;;;;;;;14.62;49.11;100260.63;4925608;29;20138;-60
2021/12/20 07:17:43;;;;;;;2.23;1.50;;;;;;;14.50;49.21;100252.75;4926463;29;20082;-60
2021/12/20 07:20:11;;;;;;;3.23;1.67;;;;;;;14.63;49.15;100248.22;4929746;29;20458;-60
2021/12/20 07:22:38;;;;;;;4.97;2.10;;;;;;;14.33;49.33;100228.06;4929679;29;20176;-60
2021/12/20 07:25:05;;;;;;;8.93;1.80;;;;;;;14.48;49.19;100245.75;4921959;29;20146;-60
2021/12/20 07:27:32;;;;;;;1.57;1.13;;;;;;;14.50;49.38;100263.97;4925128;29;20601;-60
2021/12/20 07:30:00;;;;;;;4.60;1.80;;;;;;;14.49;49.40;100259.47;4925615;29;20047;-60
2021/12/20 07:32:26;;;;;;;0.77;0.60;;;;;;;14.30;49.60;100237.13;4922944;29;20051;-60
2021/12/20 07:34:53;;;;;;;1.03;1.03;;;;;;;14.31;49.50;100227.53;4922487;29;20449;-60
2021/12/20 07:37:21;;;;;;;15.40;1.73;;;;;;;14.54;49.57;100273.44;4926451;29;20593;-60
2021/12/20 07:39:48;;;;;;;1.07;0.70;;;;;;;14.54;49.71;100269.81;4924289;29;20138;-60
2021/12/20 07:42:15;;;;;;;1.80;0.77;;;;;;;14.51;49.63;100264.81;4926939;29;20048;-60
2021/12/20 07:44:44;;;;;;;2.33;1.73;;;;;;;14.49;49.60;100258.63;4925431;29;20142;-60
2021/12/20 07:47:11;;;;;;;2.53;1.37;;;;;;;14.56;49.34;100257.09;4926061;29;20135;-60
2021/12/20 07:49:38;;;;;;;1.10;0.50;;;;;;;14.57;49.55;100261.56;4930394;29;20527;-60
2021/12/20 07:52:05;;;;;;;1.80;1.07;;;;;;;14.55;49.49;100271.47;4930002;29;20135;-60
2021/12/20 07:54:32;;;;;;;8.47;1.63;;;;;;;14.59;49.45;100267.69;4923524;29;20083;-60
2021/12/20 07:56:59;;;;;;;2.73;1.07;;;;;;;14.65;49.03;100280.50;4916058;29;20047;-60
2021/12/20 07:59:26;;;;;;;5.13;1.83;;;;;;;14.69;49.26;100266.66;4923283;29;20058;-60
2021/12/20 08:01:53;;;;;;;2.33;1.03;;;;;;;14.72;49.35;100266.03;4919593;29;20210;-60
2021/12/20 08:04:21;;;;;;;5.27;1.87;;;;;;;14.71;49.20;100258.75;4919711;29;20052;-60
2021/12/20 08:06:49;;;;;;;3.40;1.07;;;;;;;14.78;49.23;100269.56;4924518;29;20201;-61
2021/12/20 08:09:16;;;;;;;2.10;0.80;;;;;;;14.70;49.50;100279.56;4917159;29;20586;-61
2021/12/20 08:11:43;;;;;;;1.27;1.07;;;;;;;14.68;49.61;100277.06;4921012;29;20056;-60
2021/12/20 08:14:10;;;;;;;0.80;0.80;;;;;;;14.70;49.60;100271.16;4920605;29;20122;-60
2021/12/20 08:16:37;;;;;;;1.47;0.77;;;;;;;14.76;49.50;100246.53;4921533;29;20046;-60
2021/12/20 08:19:04;;;;;;;0.77;0.73;;;;;;;14.56;50.56;100264.69;4927563;29;20150;-58
2021/12/20 08:21:31;;;;;;;3.13;1.47;;;;;;;14.07;52.12;100260.63;4925797;29;20052;-59
2021/12/20 08:23:58;;;;;;;4.93;1.17;;;;;;;13.79;53.26;100262.56;4921918;29;20048;-59
2021/12/20 08:26:26;;;;;;;1.97;0.77;;;;;;;13.88;53.46;100271.94;4925424;29;20075;-58
2021/12/20 08:28:57;;;;;;;1.60;0.80;;;;;;;13.98;53.72;100283.81;4926533;29;20066;-59
2021/12/20 08:31:23;;;;;;;2.90;1.33;;;;;;;14.07;53.85;100285.91;4928635;29;20099;-59
2021/12/20 08:33:50;;;;;;;1.50;0.80;;;;;;;14.12;53.97;100285.78;4920492;29;20065;-58
2021/12/20 08:36:18;;;;;;;2.90;1.63;;;;;;;14.22;53.61;100285.59;4922230;29;20139;-59
2021/12/20 08:38:45;;;;;;;1.97;1.23;;;;;;;14.33;53.63;100291.84;4926304;29;20087;-59
2021/12/20 08:41:12;;;;;;;6.03;1.97;;;;;;;14.46;53.50;100291.00;4922449;29;20151;-60
2021/12/20 08:43:40;;;;;;;0.73;0.60;;;;;;;14.52;53.49;100288.94;4923802;29;20075;-60
2021/12/20 08:46:09;;;;;;;3.10;2.07;;;;;;;14.54;53.29;100292.28;4930369;29;20090;-60
2021/12/20 08:48:37;;;;;;;3.97;2.00;;;;;;;14.54;53.22;100281.03;4927168;29;20052;-60
2021/12/20 08:51:04;;;;;;;2.33;1.20;;;;;;;14.57;53.35;100305.72;4932494;29;20127;-60
2021/12/20 08:53:31;;;;;;;4.60;1.47;;;;;;;14.43;53.50;100291.63;4927652;29;20110;-60
2021/12/20 08:55:58;;;;;;;4.80;1.60;;;;;;;14.10;54.67;100317.00;4927033;29;20259;-60
2021/12/20 08:58:25;;;;;;;0.93;0.67;;;;;;;13.52;57.22;100312.69;4928722;29;20146;-60
2021/12/20 09:00:54;;;;;;;2.97;0.83;;;;;;;13.14;59.17;100306.28;4932874;29;20142;-60
2021/12/20 09:03:21;;;;;;;1.27;1.10;;;;;;;12.99;61.21;100310.16;4927747;29;20463;-60
2021/12/20 09:05:49;;;;;;;6.27;2.23;;;;;;;12.84;62.74;100315.94;4924197;29;20044;-61
2021/12/20 09:08:18;;;;;;;2.00;1.10;;;;;;;12.98;63.53;100302.84;4929130;29;20514;-60
2021/12/20 09:10:47;;;;;;;1.52;1.35;;;;;;;13.23;63.55;100310.06;4931229;29;20063;-60
2021/12/20 09:13:14;;;;;;;0.77;0.67;;;;;;;13.48;63.13;100319.22;4923552;29;20126;-60
2021/12/20 09:15:42;;;;;;;2.63;1.17;;;;;;;13.56;63.16;100309.28;4923913;29;20130;-60
2021/12/20 09:18:09;;;;;;;5.10;1.70;;;;;;;13.66;63.21;100315.53;4930896;29;20052;-59
2021/12/20 09:20:37;;;;;;;3.70;1.93;;;;;;;13.61;62.87;100314.81;4924265;29;20135;-60
2021/12/20 09:23:06;;;;;;;2.63;1.80;;;;;;;13.78;63.16;100309.47;4927255;29;20087;-60
2021/12/20 09:25:35;;;;;;;5.13;1.43;;;;;;;13.89;62.90;100318.53;4925660;29;20510;-60
2021/12/20 09:28:09;;;;;;;2.72;1.35;;;;;;;13.80;62.81;100318.38;4934257;29;20138;-60
2021/12/20 09:30:41;;;;;;;1.63;1.17;;;;;;;13.79;62.95;100318.72;4940106;29;20503;-60
2021/12/20 09:33:09;;;;;;;2.57;1.77;;;;;;;13.79;63.11;100319.53;4935189;29;20044;-60
2021/12/20 09:35:36;;;;;;;2.03;1.47;;;;;;;13.82;62.95;100307.69;4935404;29;20472;-61
2021/12/20 09:38:06;;;;;;;2.07;1.40;;;;;;;13.82;62.96;100304.88;4933086;29;20048;-59
2021/12/20 09:40:37;;;;;;;5.13;1.97;;;;;;;13.86;62.73;100322.78;4920640;29;20155;-63
2021/12/20 09:43:10;;;;;;;4.70;1.60;;;;;;;13.92;62.58;100318.75;4918725;29;20139;-64
2021/12/20 09:45:38;;;;;;;2.17;1.67;;;;;;;13.85;62.61;100306.25;4934163;29;20060;-64
2021/12/20 09:48:05;;;;;;;4.00;2.00;;;;;;;13.97;62.41;100345.88;4940970;28;20090;-65
2021/12/20 09:50:32;;;;;;;2.27;1.63;;;;;;;14.07;62.60;100337.25;4925385;29;20047;-64
2021/12/20 09:53:04;;;;;;;6.90;2.13;;;;;;;14.07;62.30;100326.03;4928167;29;20158;-64
2021/12/20 09:55:32;;;;;;;6.67;2.53;;;;;;;14.21;62.66;100326.06;4919477;29;20079;-63
2021/12/20 09:58:01;;;;;;;4.63;2.70;;;;;;;14.26;62.78;100322.34;4924558;29;20395;-63
2021/12/20 10:00:30;;;;;;;5.60;2.50;;;;;;;14.28;62.32;100318.03;4924543;29;20230;-63
2021/12/20 10:02:57;;;;;;;3.83;1.70;;;;;;;14.21;61.92;100328.84;4923243;29;20056;-63
2021/12/20 10:05:24;;;;;;;3.33;1.70;;;;;;;14.13;61.77;100307.13;4930477;29;20048;-69
2021/12/20 10:07:51;;;;;;;2.07;1.43;;;;;;;14.21;61.77;100323.25;4923311;29;20644;-65
2021/12/20 10:10:38;;;;;;;5.73;3.13;;;;;;;14.14;61.18;100329.28;4929193;29;20150;-66
2021/12/20 10:13:06;;;;;;;2.67;1.40;;;;;;;14.15;61.51;100330.09;4932865;29;20051;-65
2021/12/20 10:15:36;;;;;;;2.83;1.90;;;;;;;14.23;61.45;100332.22;4929569;29;20155;-66
2021/12/20 10:18:05;;;;;;;7.70;2.53;;;;;;;14.25;61.56;100335.50;4932422;29;20130;-76
2021/12/20 10:20:36;;;;;;;3.27;1.50;;;;;;;14.31;61.40;100342.72;4930108;29;20047;-73
2021/12/20 10:23:12;;;;;;;14.07;3.90;;;;;;;14.45;61.29;100357.59;4931608;29;20090;-63
2021/12/20 10:25:41;;;;;;;3.47;2.47;;;;;;;14.43;60.98;100351.47;4929431;29;20091;-62
2021/12/20 10:28:18;;;;;;;4.43;1.93;;;;;;;14.46;60.87;100352.81;4945928;29;20143;-66
2021/12/20 10:30:50;;;;;;;12.98;2.83;;;;;;;14.35;60.29;100357.78;4929331;29;20167;-61
2021/12/20 10:33:21;;;;;;;4.75;2.92;;;;;;;14.37;60.57;100344.28;4930470;29;20048;-59
2021/12/20 10:36:00;;;;;;;5.70;2.03;;;;;;;14.49;60.52;100354.16;4930369;29;20760;-60
2021/12/20 10:38:27;;;;;;;12.87;4.00;;;;;;;14.56;60.95;100351.78;4936856;29;20153;-61
2021/12/20 10:41:04;;;;;;;5.60;2.87;;;;;;;14.74;61.59;100359.31;4933626;28;20213;-75
2021/12/20 10:43:47;;;;;;;10.93;3.37;;;;;;;14.69;61.48;100328.47;4931752;29;20672;-73
2021/12/20 10:46:21;;;;;;;10.60;3.07;;;;;;;14.82;61.11;100350.13;4932966;29;20134;-74
2021/12/20 10:48:52;;;;;;;2.40;1.37;;;;;;;14.76;61.12;100328.88;4930669;29;20163;-67
2021/12/20 10:51:48;;;;;;;1.97;1.57;;;;;;;14.77;61.10;100344.63;4914786;29;20253;-71
2021/12/20 10:54:18;;;;;;;5.03;2.60;;;;;;;14.71;60.58;100331.81;4925123;29;20081;-68
2021/12/20 10:56:54;;;;;;;7.20;1.83;;;;;;;14.74;60.29;100325.56;4923240;29;20468;-57
2021/12/20 10:59:23;;;;;;;3.43;2.13;;;;;;;14.64;60.51;100309.75;4928524;29;20138;-58
2021/12/20 11:04:22;;;;;;;6.67;2.33;;;;;;;14.71;60.39;100312.16;4929124;29;20086;-57
2021/12/20 11:09:43;;;;;;;5.00;2.30;;;;;;;14.63;60.34;100298.81;4926277;29;20106;-57
2021/12/20 11:12:31;;;;;;;4.40;2.40;;;;;;;14.68;61.27;100301.53;4927915;29;20393;-57
2021/12/20 11:15:10;;;;;;;4.70;2.87;;;;;;;14.73;61.28;100298.59;4927145;29;20127;-58
2021/12/20 11:17:45;;;;;;;6.03;2.57;;;;;;;14.69;60.74;100294.75;4924892;29;20150;-57
2021/12/20 11:20:21;;;;;;;2.67;2.40;;;;;;;14.64;61.42;100276.03;4920639;29;20058;-56
2021/12/20 11:22:48;;;;;;;9.80;4.03;;;;;;;14.83;61.10;100289.09;4918135;29;20051;-56
2021/12/20 11:25:15;;;;;;;2.80;2.10;;;;;;;14.78;60.82;100292.03;4922241;29;20476;-57
2021/12/20 11:27:52;;;;;;;11.47;3.70;;;;;;;14.85;61.22;100287.66;4923801;29;20106;-57
2021/12/20 11:30:28;;;;;;;4.83;2.27;;;;;;;14.91;61.64;100292.00;4928872;29;20143;-59
2021/12/20 11:32:55;;;;;;;5.53;3.43;;;;;;;14.83;61.58;100289.09;4927325;29;20083;-58
2021/12/20 11:35:24;;;;;;;7.73;2.93;;;;;;;14.71;62.26;100274.78;4923916;29;20056;-57
2021/12/20 11:37:51;;;;;;;5.53;3.60;;;;;;;14.69;62.08;100266.66;4934003;29;20246;-58
2021/12/20 11:40:20;;;;;;;4.60;3.43;;;;;;;14.61;62.30;100220.47;4923579;29;20066;-58
2021/12/20 11:42:49;;;;;;;7.83;3.70;;;;;;;14.78;62.35;100256.31;4932525;29;20471;-58
2021/12/20 11:45:18;;;;;;;18.80;7.05;;;;;;;14.78;62.47;100247.91;4923563;29;20901;-57
2021/12/20 11:48:01;;;;;;;10.20;5.90;;;;;;;14.66;62.44;100256.84;4925385;29;20062;-57